createdAt,value
2019-04-06T00:00:35.055Z,8.91
2019-04-06T00:01:35.041Z,9.02
2019-04-06T00:02:35.038Z,9.01
2019-04-06T00:03:35.028Z,9.08
2019-04-06T00:04:35.015Z,9.08
2019-04-06T00:05:35.000Z,9.17
2019-04-06T00:06:34.995Z,9.26
2019-04-06T00:07:34.983Z,9.36
2019-04-06T00:08:34.990Z,9.35
2019-04-06T00:09:34.955Z,9.56
2019-04-06T00:10:34.949Z,9.69
2019-04-06T00:11:34.940Z,9.66
2019-04-06T00:12:34.933Z,9.71
2019-04-06T00:13:34.912Z,9.71
2019-04-06T00:14:34.911Z,9.60
2019-04-06T00:15:34.892Z,9.72
2019-04-06T00:16:34.887Z,9.78
2019-04-06T00:17:34.871Z,9.89
2019-04-06T00:18:34.868Z,9.75
2019-04-06T00:19:34.852Z,9.76
2019-04-06T00:20:34.841Z,9.78
2019-04-06T00:21:34.836Z,9.76
2019-04-06T00:22:34.850Z,9.69
2019-04-06T00:23:34.807Z,9.68
2019-04-06T00:24:34.803Z,9.71
2019-04-06T00:25:43.866Z,9.72
2019-04-06T00:26:35.781Z,9.69
2019-04-06T00:27:34.763Z,9.71
2019-04-06T00:28:34.761Z,9.72
2019-04-06T00:29:34.800Z,9.66
2019-04-06T00:30:34.733Z,9.56
2019-04-06T00:31:34.727Z,9.66
2019-04-06T00:32:34.716Z,9.65
2019-04-06T00:33:34.700Z,9.71
2019-04-06T00:34:34.700Z,9.72
2019-04-06T00:35:34.677Z,9.66
2019-04-06T00:36:34.672Z,9.71
2019-04-06T00:37:34.698Z,9.58
2019-04-06T00:38:34.646Z,9.68
2019-04-06T00:39:34.640Z,9.71
2019-04-06T00:40:34.624Z,9.78
2019-04-06T00:41:34.613Z,9.84
2019-04-06T00:42:34.603Z,9.71
2019-04-06T00:43:34.591Z,9.78
2019-04-06T00:44:34.582Z,9.84
2019-04-06T00:45:34.570Z,9.76
2019-04-06T00:46:34.560Z,9.79
2019-04-06T00:47:34.550Z,9.93
2019-04-06T00:48:34.540Z,9.97
2019-04-06T00:49:34.589Z,9.97
2019-04-06T00:50:34.516Z,10.07
2019-04-06T00:51:34.508Z,9.96
2019-04-06T00:52:34.497Z,9.96
2019-04-06T00:53:34.489Z,9.99
2019-04-06T00:54:34.476Z,10.02
2019-04-06T00:55:34.461Z,10.08
2019-04-06T00:56:34.454Z,10.09
2019-04-06T00:57:34.442Z,10.01
2019-04-06T00:58:34.516Z,10.17
2019-04-06T00:59:34.430Z,10.07
2019-04-06T01:00:34.413Z,10.12
2019-04-06T01:01:34.404Z,10.04
2019-04-06T01:02:34.392Z,10.04
2019-04-06T01:03:34.380Z,10.18
2019-04-06T01:04:34.374Z,10.05
2019-04-06T01:05:34.375Z,10.02
2019-04-06T01:06:34.347Z,10.08
2019-04-06T01:07:34.349Z,10.09
2019-04-06T01:08:34.323Z,10.09
2019-04-06T01:09:34.328Z,10.09
2019-04-06T01:10:34.304Z,10.40
2019-04-06T01:11:34.297Z,10.33
2019-04-06T01:12:34.280Z,10.47
2019-04-06T01:13:34.267Z,10.42
2019-04-06T01:14:34.261Z,10.36
2019-04-06T01:15:34.261Z,10.38
2019-04-06T01:16:34.238Z,10.44
2019-04-06T01:17:34.231Z,10.44
2019-04-06T01:18:34.218Z,10.42
2019-04-06T01:19:34.214Z,10.41
2019-04-06T01:20:34.197Z,10.47
2019-04-06T01:21:34.182Z,10.34
2019-04-06T01:22:34.177Z,10.32
2019-04-06T01:23:34.160Z,10.32
2019-04-06T01:24:34.154Z,10.27
2019-04-06T01:25:34.156Z,10.20
2019-04-06T01:26:34.152Z,10.17
2019-04-06T01:27:34.123Z,10.12
2019-04-06T01:28:34.111Z,10.04
2019-04-06T01:29:34.161Z,9.97
2019-04-06T01:30:34.093Z,9.86
2019-04-06T01:31:34.076Z,9.93
2019-04-06T01:32:34.069Z,9.89
2019-04-06T01:33:34.063Z,9.84
2019-04-06T01:34:34.063Z,9.72
2019-04-06T01:35:34.033Z,9.71
2019-04-06T01:36:34.025Z,9.71
2019-04-06T01:37:34.071Z,9.69
2019-04-06T01:38:34.005Z,9.66
2019-04-06T01:39:34.002Z,9.66
2019-04-06T01:40:33.981Z,9.72
2019-04-06T01:41:33.967Z,9.68
2019-04-06T01:42:33.959Z,9.56
2019-04-06T01:43:33.952Z,9.61
2019-04-06T01:44:33.943Z,9.58
2019-04-06T01:45:33.960Z,9.53
2019-04-06T01:46:33.921Z,9.58
2019-04-06T01:47:33.912Z,9.50
2019-04-06T01:48:33.899Z,9.51
2019-04-06T01:49:33.881Z,9.46
2019-04-06T01:50:33.881Z,9.33
2019-04-06T01:51:33.863Z,9.32
2019-04-06T01:52:33.850Z,9.29
2019-04-06T01:53:33.845Z,9.23
2019-04-06T01:54:33.830Z,9.17
2019-04-06T01:55:33.821Z,9.15
2019-04-06T01:56:33.809Z,9.11
2019-04-06T01:57:33.799Z,8.95
2019-04-06T01:58:33.800Z,8.99
2019-04-06T01:59:33.784Z,8.83
2019-04-06T02:00:33.767Z,8.83
2019-04-06T02:01:33.817Z,8.73
2019-04-06T02:02:33.758Z,8.65
2019-04-06T02:03:33.732Z,8.65
2019-04-06T02:04:33.727Z,8.52
2019-04-06T02:05:33.715Z,8.38
2019-04-06T02:06:33.712Z,8.38
2019-04-06T02:07:33.715Z,8.29
2019-04-06T02:08:33.695Z,8.19
2019-04-06T02:09:33.669Z,8.25
2019-04-06T02:10:33.658Z,8.20
2019-04-06T02:11:33.649Z,8.11
2019-04-06T02:12:33.640Z,8.05
2019-04-06T02:13:33.631Z,7.93
2019-04-06T02:14:33.624Z,7.89
2019-04-06T02:15:33.604Z,7.85
2019-04-06T02:16:33.591Z,7.87
2019-04-06T02:17:33.582Z,7.80
2019-04-06T02:18:33.581Z,7.69
2019-04-06T02:19:33.565Z,7.68
2019-04-06T02:20:33.599Z,7.61
2019-04-06T02:21:33.538Z,7.57
2019-04-06T02:22:33.611Z,7.48
2019-04-06T02:23:33.528Z,7.46
2019-04-06T02:24:33.521Z,7.55
2019-04-06T02:25:33.499Z,7.40
2019-04-06T02:26:33.488Z,7.42
2019-04-06T02:27:33.479Z,7.43
2019-04-06T02:28:33.584Z,7.39
2019-04-06T02:29:33.455Z,7.31
2019-04-06T02:30:33.452Z,7.30
2019-04-06T02:31:33.445Z,7.28
2019-04-06T02:32:33.434Z,7.24
2019-04-06T02:33:33.410Z,7.20
2019-04-06T02:34:33.416Z,7.24
2019-04-06T02:35:33.391Z,7.15
2019-04-06T02:36:33.382Z,7.12
2019-04-06T02:37:33.368Z,7.13
2019-04-06T02:38:33.366Z,7.09
2019-04-06T02:39:33.347Z,7.10
2019-04-06T02:40:33.336Z,7.13
2019-04-06T02:41:33.326Z,6.97
2019-04-06T02:42:33.320Z,6.94
2019-04-06T02:43:33.316Z,6.94
2019-04-06T02:44:33.304Z,6.97
2019-04-06T02:45:33.346Z,6.94
2019-04-06T02:46:33.274Z,6.98
2019-04-06T02:47:33.273Z,6.94
2019-04-06T02:48:33.253Z,6.94
2019-04-06T02:49:33.372Z,6.89
2019-04-06T02:50:33.228Z,6.87
2019-04-06T02:51:33.223Z,6.74
2019-04-06T02:52:33.209Z,6.76
2019-04-06T02:53:33.197Z,6.81
2019-04-06T02:54:33.187Z,6.74
2019-04-06T02:55:33.175Z,6.70
2019-04-06T02:56:45.013Z,6.73
2019-04-06T02:57:34.273Z,6.70
2019-04-06T02:58:33.149Z,6.73
2019-04-06T02:59:33.231Z,6.58
2019-04-06T03:00:33.125Z,6.59
2019-04-06T03:01:33.116Z,6.61
2019-04-06T03:02:33.102Z,6.61
2019-04-06T03:03:33.115Z,6.61
2019-04-06T03:04:33.079Z,6.49
2019-04-06T03:05:33.079Z,6.52
2019-04-06T03:06:33.060Z,6.48
2019-04-06T03:07:33.198Z,6.49
2019-04-06T03:08:33.037Z,6.51
2019-04-06T03:09:33.184Z,6.52
2019-04-06T03:10:33.012Z,6.46
2019-04-06T03:11:33.178Z,6.49
2019-04-06T03:12:33.010Z,6.52
2019-04-06T03:13:32.997Z,6.51
2019-04-06T03:14:32.972Z,6.38
2019-04-06T03:15:32.959Z,6.49
2019-04-06T03:16:32.978Z,6.49
2019-04-06T03:17:32.946Z,6.56
2019-04-06T03:18:32.929Z,6.41
2019-04-06T03:19:32.917Z,6.38
2019-04-06T03:20:33.037Z,6.46
2019-04-06T03:21:32.901Z,6.44
2019-04-06T03:22:32.907Z,6.34
2019-04-06T03:23:32.872Z,6.38
2019-04-06T03:24:32.873Z,6.33
2019-04-06T03:25:32.959Z,6.43
2019-04-06T03:26:32.842Z,6.38
2019-04-06T03:27:32.830Z,6.40
2019-04-06T03:28:32.915Z,6.30
2019-04-06T03:29:32.818Z,6.34
2019-04-06T03:30:32.802Z,6.25
2019-04-06T03:31:32.861Z,6.34
2019-04-06T03:32:32.793Z,6.27
2019-04-06T03:33:32.769Z,6.31
2019-04-06T03:34:32.762Z,6.22
2019-04-06T03:35:32.970Z,6.28
2019-04-06T03:36:32.921Z,6.33
2019-04-06T03:37:32.725Z,6.43
2019-04-06T03:38:32.711Z,6.37
2019-04-06T03:39:32.706Z,6.40
2019-04-06T03:40:32.693Z,6.34
2019-04-06T03:41:32.698Z,6.33
2019-04-06T03:42:32.669Z,6.34
2019-04-06T03:43:32.662Z,6.38
2019-04-06T03:44:32.658Z,6.31
2019-04-06T03:45:32.638Z,6.34
2019-04-06T03:46:32.627Z,6.34
2019-04-06T03:47:32.632Z,6.33
2019-04-06T03:48:32.607Z,6.38
2019-04-06T03:49:32.598Z,6.41
2019-04-06T03:50:32.585Z,6.41
2019-04-06T03:51:32.576Z,6.58
2019-04-06T03:52:32.673Z,6.77
2019-04-06T03:53:32.565Z,6.77
2019-04-06T03:54:32.542Z,6.91
2019-04-06T03:55:32.595Z,6.89
2019-04-06T03:56:32.521Z,6.92
2019-04-06T03:57:32.513Z,6.97
2019-04-06T03:58:32.583Z,6.97
2019-04-06T03:59:32.489Z,7.10
2019-04-06T04:00:32.756Z,7.06
2019-04-06T04:01:32.463Z,7.20
2019-04-06T04:02:32.467Z,7.24
2019-04-06T04:03:32.462Z,7.37
2019-04-06T04:04:32.469Z,7.37
2019-04-06T04:05:32.426Z,7.35
2019-04-06T04:06:32.503Z,7.35
2019-04-06T04:07:32.410Z,7.40
2019-04-06T04:08:32.392Z,7.34
2019-04-06T04:09:32.385Z,7.35
2019-04-06T04:10:32.376Z,7.27
2019-04-06T04:11:32.364Z,7.39
2019-04-06T04:12:32.457Z,7.35
2019-04-06T04:13:32.341Z,7.42
2019-04-06T04:14:32.350Z,7.40
2019-04-06T04:15:32.318Z,7.50
2019-04-06T04:16:32.304Z,7.69
2019-04-06T04:17:32.298Z,7.75
2019-04-06T04:18:32.440Z,7.90
2019-04-06T04:19:32.274Z,7.97
2019-04-06T04:20:32.259Z,8.10
2019-04-06T04:21:32.263Z,8.36
2019-04-06T04:22:34.658Z,8.36
2019-04-06T04:23:32.231Z,8.48
2019-04-06T04:24:32.224Z,8.45
2019-04-06T04:25:32.410Z,8.52
2019-04-06T04:26:32.196Z,8.58
2019-04-06T04:27:32.192Z,8.63
2019-04-06T04:28:32.187Z,8.70
2019-04-06T04:29:32.169Z,8.59
2019-04-06T04:30:34.006Z,8.62
2019-04-06T04:31:32.147Z,8.73
2019-04-06T04:32:32.186Z,8.80
2019-04-06T04:33:32.138Z,8.79
2019-04-06T04:34:32.195Z,8.87
2019-04-06T04:35:32.102Z,8.89
2019-04-06T04:36:32.097Z,8.86
2019-04-06T04:37:32.116Z,8.79
2019-04-06T04:38:32.071Z,8.89
2019-04-06T04:39:32.060Z,8.81
2019-04-06T04:40:32.147Z,8.79
2019-04-06T04:41:32.036Z,8.84
2019-04-06T04:42:32.347Z,8.80
2019-04-06T04:43:32.025Z,8.87
2019-04-06T04:44:32.005Z,8.89
2019-04-06T04:45:31.992Z,8.95
2019-04-06T04:46:32.009Z,8.95
2019-04-06T04:47:31.974Z,8.95
2019-04-06T04:48:31.999Z,9.04
2019-04-06T04:49:31.950Z,9.02
2019-04-06T04:50:31.942Z,9.13
2019-04-06T04:51:32.073Z,9.20
2019-04-06T04:52:31.921Z,9.23
2019-04-06T04:53:31.912Z,9.15
2019-04-06T04:54:31.900Z,9.26
2019-04-06T04:55:31.889Z,9.23
2019-04-06T04:56:32.001Z,9.31
2019-04-06T04:57:40.130Z,9.28
2019-04-06T04:58:32.855Z,9.29
2019-04-06T04:59:32.112Z,9.28
2019-04-06T05:00:31.854Z,9.31
2019-04-06T05:01:31.822Z,9.28
2019-04-06T05:02:31.823Z,9.36
2019-04-06T05:03:31.803Z,9.33
2019-04-06T05:04:31.921Z,9.35
2019-04-06T05:05:31.787Z,9.31
2019-04-06T05:06:31.766Z,9.28
2019-04-06T05:07:31.759Z,9.26
2019-04-06T05:08:31.754Z,9.24
2019-04-06T05:09:31.740Z,9.28
2019-04-06T05:10:31.732Z,9.35
2019-04-06T05:11:31.716Z,9.26
2019-04-06T05:12:31.707Z,9.31
2019-04-06T05:13:31.694Z,9.33
2019-04-06T05:14:31.701Z,9.29
2019-04-06T05:15:31.671Z,9.18
2019-04-06T05:16:31.661Z,9.20
2019-04-06T05:17:31.655Z,9.28
2019-04-06T05:18:31.640Z,9.28
2019-04-06T05:19:31.637Z,9.29
2019-04-06T05:20:31.618Z,9.32
2019-04-06T05:21:31.791Z,9.40
2019-04-06T05:22:31.596Z,9.48
2019-04-06T05:23:31.587Z,9.50
2019-04-06T05:24:31.578Z,9.58
2019-04-06T05:25:31.572Z,9.68
2019-04-06T05:26:37.422Z,9.93
2019-04-06T05:27:32.682Z,10.05
2019-04-06T05:28:31.531Z,10.22
2019-04-06T05:29:33.248Z,10.14
2019-04-06T05:30:31.512Z,10.34
2019-04-06T05:31:31.496Z,10.52
2019-04-06T05:32:31.613Z,10.66
2019-04-06T05:33:31.524Z,10.70
2019-04-06T05:34:31.466Z,10.82
2019-04-06T05:35:31.457Z,10.89
2019-04-06T05:36:31.448Z,11.28
2019-04-06T05:37:31.438Z,11.57
2019-04-06T05:38:31.422Z,11.54
2019-04-06T05:39:31.416Z,11.47
2019-04-06T05:40:31.406Z,11.36
2019-04-06T05:41:31.398Z,11.33
2019-04-06T05:42:31.382Z,11.25
2019-04-06T05:43:31.370Z,11.22
2019-04-06T05:44:31.366Z,11.04
2019-04-06T05:45:31.363Z,11.10
2019-04-06T05:46:31.335Z,11.39
2019-04-06T05:47:31.327Z,11.70
2019-04-06T05:48:31.337Z,12.16
2019-04-06T05:49:31.304Z,12.41
2019-04-06T05:50:31.310Z,12.60
2019-04-06T05:51:31.289Z,12.79
2019-04-06T05:52:31.282Z,13.04
2019-04-06T05:53:31.268Z,13.10
2019-04-06T05:54:31.251Z,13.14
2019-04-06T05:55:31.259Z,13.32
2019-04-06T05:56:31.247Z,13.51
2019-04-06T05:57:32.148Z,13.59
2019-04-06T05:58:31.209Z,13.51
2019-04-06T05:59:31.209Z,13.51
2019-04-06T06:00:31.199Z,13.51
2019-04-06T06:01:31.182Z,13.48
2019-04-06T06:02:31.274Z,13.46
2019-04-06T06:03:31.156Z,13.39
2019-04-06T06:04:31.154Z,13.25
2019-04-06T06:05:31.137Z,13.36
2019-04-06T06:06:31.126Z,13.57
2019-04-06T06:07:31.121Z,13.51
2019-04-06T06:08:31.102Z,13.52
2019-04-06T06:09:31.093Z,13.46
2019-04-06T06:10:31.079Z,13.55
2019-04-06T06:11:31.072Z,13.66
2019-04-06T06:12:31.186Z,13.88
2019-04-06T06:13:31.046Z,14.00
2019-04-06T06:14:31.044Z,14.07
2019-04-06T06:15:31.033Z,13.87
2019-04-06T06:16:31.017Z,13.96
2019-04-06T06:17:31.015Z,13.99
2019-04-06T06:18:31.140Z,14.32
2019-04-06T06:19:30.984Z,14.52
2019-04-06T06:20:30.970Z,14.37
2019-04-06T06:21:30.971Z,14.69
2019-04-06T06:22:30.953Z,14.92
2019-04-06T06:23:31.058Z,15.10
2019-04-06T06:24:30.927Z,14.89
2019-04-06T06:25:30.975Z,14.68
2019-04-06T06:26:31.148Z,14.89
2019-04-06T06:27:30.895Z,14.51
2019-04-06T06:28:30.903Z,14.51
2019-04-06T06:29:30.874Z,14.73
2019-04-06T06:30:30.893Z,14.95
2019-04-06T06:31:30.863Z,14.98
2019-04-06T06:32:31.377Z,14.92
2019-04-06T06:33:30.843Z,14.84
2019-04-06T06:34:30.853Z,14.54
2019-04-06T06:35:30.984Z,14.51
2019-04-06T06:36:30.804Z,14.88
2019-04-06T06:37:30.797Z,14.94
2019-04-06T06:38:30.778Z,14.96
2019-04-06T06:39:30.777Z,14.89
2019-04-06T06:40:30.760Z,14.36
2019-04-06T06:41:30.759Z,14.43
2019-04-06T06:42:30.732Z,14.32
2019-04-06T06:43:30.741Z,14.06
2019-04-06T06:44:30.713Z,13.60
2019-04-06T06:45:30.708Z,13.20
2019-04-06T06:46:30.698Z,13.15
2019-04-06T06:47:30.725Z,12.96
2019-04-06T06:48:30.765Z,12.89
2019-04-06T06:49:30.662Z,13.29
2019-04-06T06:50:30.652Z,13.73
2019-04-06T06:51:30.655Z,14.22
2019-04-06T06:52:30.634Z,14.61
2019-04-06T06:53:30.618Z,14.57
2019-04-06T06:54:30.612Z,14.65
2019-04-06T06:55:30.596Z,14.88
2019-04-06T06:56:30.585Z,15.34
2019-04-06T06:57:30.708Z,15.67
2019-04-06T06:58:30.570Z,15.89
2019-04-06T06:59:30.554Z,16.04
2019-04-06T07:00:30.555Z,16.17
2019-04-06T07:01:30.697Z,16.48
2019-04-06T07:02:30.661Z,16.81
2019-04-06T07:03:30.675Z,17.01
2019-04-06T07:04:30.501Z,16.97
2019-04-06T07:05:30.494Z,16.42
2019-04-06T07:06:30.489Z,15.32
2019-04-06T07:07:30.472Z,15.02
2019-04-06T07:08:30.465Z,15.53
2019-04-06T07:09:30.440Z,15.84
2019-04-06T07:10:30.437Z,15.97
2019-04-06T07:11:30.434Z,16.23
2019-04-06T07:12:30.422Z,16.63
2019-04-06T07:13:30.403Z,17.23
2019-04-06T07:14:30.567Z,17.48
2019-04-06T07:15:30.633Z,17.46
2019-04-06T07:16:30.371Z,17.48
2019-04-06T07:17:30.363Z,17.79
2019-04-06T07:18:30.349Z,18.07
2019-04-06T07:19:30.431Z,18.10
2019-04-06T07:20:30.420Z,17.84
2019-04-06T07:21:30.317Z,17.92
2019-04-06T07:22:30.306Z,18.25
2019-04-06T07:23:30.298Z,18.51
2019-04-06T07:24:30.458Z,18.45
2019-04-06T07:25:30.275Z,18.47
2019-04-06T07:26:30.285Z,18.44
2019-04-06T07:27:30.251Z,18.52
2019-04-06T07:28:37.576Z,18.67
2019-04-06T07:29:31.255Z,18.60
2019-04-06T07:30:30.257Z,18.73
2019-04-06T07:31:30.214Z,18.94
2019-04-06T07:32:30.312Z,18.67
2019-04-06T07:33:30.190Z,18.08
2019-04-06T07:34:30.530Z,17.95
2019-04-06T07:35:30.165Z,17.77
2019-04-06T07:36:30.158Z,17.99
2019-04-06T07:37:30.150Z,18.35
2019-04-06T07:38:30.139Z,18.90
2019-04-06T07:39:30.173Z,19.23
2019-04-06T07:40:30.116Z,19.37
2019-04-06T07:41:30.107Z,19.56
2019-04-06T07:42:30.091Z,19.54
2019-04-06T07:43:30.108Z,19.32
2019-04-06T07:44:30.224Z,19.00
2019-04-06T07:45:30.060Z,19.00
2019-04-06T07:46:30.052Z,19.18
2019-04-06T07:47:30.044Z,19.46
2019-04-06T07:48:30.031Z,19.68
2019-04-06T07:49:30.264Z,19.58
2019-04-06T07:50:30.055Z,19.54
2019-04-06T07:51:30.000Z,19.69
2019-04-06T07:52:29.987Z,19.56
2019-04-06T07:53:29.980Z,19.88
2019-04-06T07:54:29.973Z,20.03
2019-04-06T07:55:29.953Z,20.06
2019-04-06T07:56:30.003Z,20.21
2019-04-06T07:57:29.938Z,20.26
2019-04-06T07:58:29.921Z,19.74
2019-04-06T07:59:30.238Z,19.96
2019-04-06T08:00:29.903Z,19.95
2019-04-06T08:01:29.895Z,20.10
2019-04-06T08:02:29.889Z,20.08
2019-04-06T08:03:29.870Z,20.28
2019-04-06T08:04:30.068Z,20.21
2019-04-06T08:05:29.931Z,20.57
2019-04-06T08:06:29.879Z,20.84
2019-04-06T08:07:30.022Z,20.87
2019-04-06T08:08:29.826Z,21.10
2019-04-06T08:09:30.064Z,21.31
2019-04-06T08:10:29.797Z,21.50
2019-04-06T08:11:29.789Z,21.84
2019-04-06T08:12:29.820Z,21.88
2019-04-06T08:13:29.769Z,21.94
2019-04-06T08:14:29.759Z,22.15
2019-04-06T08:15:29.774Z,22.10
2019-04-06T08:16:29.737Z,21.99
2019-04-06T08:17:29.753Z,22.22
2019-04-06T08:18:29.717Z,21.83
2019-04-06T08:19:29.703Z,21.86
2019-04-06T08:20:29.691Z,21.74
2019-04-06T08:21:29.690Z,21.59
2019-04-06T08:22:29.671Z,21.19
2019-04-06T08:23:29.669Z,21.01
2019-04-06T08:24:29.655Z,21.16
2019-04-06T08:25:29.673Z,21.46
2019-04-06T08:26:29.649Z,20.97
2019-04-06T08:27:29.700Z,20.61
2019-04-06T08:28:29.610Z,21.01
2019-04-06T08:29:29.602Z,21.64
2019-04-06T08:30:29.625Z,22.02
2019-04-06T08:31:29.591Z,22.21
2019-04-06T08:32:29.572Z,22.15
2019-04-06T08:33:29.653Z,22.22
2019-04-06T08:34:29.555Z,22.18
2019-04-06T08:35:29.540Z,22.67
2019-04-06T08:36:29.532Z,22.85
2019-04-06T08:37:29.519Z,22.79
2019-04-06T08:38:29.504Z,22.61
2019-04-06T08:39:29.498Z,22.72
2019-04-06T08:40:29.531Z,22.76
2019-04-06T08:41:29.628Z,22.49
2019-04-06T08:42:29.662Z,22.73
2019-04-06T08:43:29.459Z,22.68
2019-04-06T08:44:29.446Z,22.57
2019-04-06T08:45:29.481Z,22.61
2019-04-06T08:46:29.425Z,22.55
2019-04-06T08:47:29.423Z,22.75
2019-04-06T08:48:29.413Z,22.77
2019-04-06T08:49:29.448Z,23.36
2019-04-06T08:50:29.389Z,23.42
2019-04-06T08:51:29.374Z,23.16
2019-04-06T08:52:29.365Z,23.04
2019-04-06T08:53:29.549Z,22.86
2019-04-06T08:54:29.347Z,22.37
2019-04-06T08:55:29.333Z,21.72
2019-04-06T08:56:29.323Z,21.69
2019-04-06T08:57:29.334Z,22.18
2019-04-06T08:58:29.303Z,22.61
2019-04-06T08:59:29.295Z,22.95
2019-04-06T09:00:29.285Z,22.83
2019-04-06T09:01:29.276Z,23.25
2019-04-06T09:02:29.267Z,23.51
2019-04-06T09:03:29.253Z,23.66
2019-04-06T09:04:29.244Z,23.40
2019-04-06T09:05:29.259Z,23.31
2019-04-06T09:06:29.223Z,23.33
2019-04-06T09:07:29.415Z,23.43
2019-04-06T09:08:29.201Z,23.57
2019-04-06T09:09:29.193Z,23.53
2019-04-06T09:10:29.188Z,23.60
2019-04-06T09:11:29.175Z,23.85
2019-04-06T09:12:29.168Z,23.57
2019-04-06T09:13:29.155Z,23.53
2019-04-06T09:14:29.143Z,23.76
2019-04-06T09:15:29.134Z,23.91
2019-04-06T09:16:29.123Z,24.09
2019-04-06T09:17:29.122Z,23.95
2019-04-06T09:18:29.203Z,24.10
2019-04-06T09:19:29.093Z,23.50
2019-04-06T09:20:29.202Z,23.16
2019-04-06T09:21:29.076Z,22.64
2019-04-06T09:22:29.067Z,23.02
2019-04-06T09:23:29.061Z,23.09
2019-04-06T09:24:29.124Z,23.09
2019-04-06T09:25:29.133Z,23.19
2019-04-06T09:26:29.026Z,23.22
2019-04-06T09:27:29.014Z,23.16
2019-04-06T09:28:29.005Z,23.39
2019-04-06T09:29:28.999Z,23.17
2019-04-06T09:30:28.987Z,23.19
2019-04-06T09:31:29.165Z,23.60
2019-04-06T09:32:28.976Z,23.17
2019-04-06T09:33:28.958Z,23.35
2019-04-06T09:34:30.985Z,23.33
2019-04-06T09:35:29.169Z,23.27
2019-04-06T09:36:28.925Z,23.07
2019-04-06T09:37:28.914Z,23.36
2019-04-06T09:38:28.908Z,23.31
2019-04-06T09:39:28.897Z,23.07
2019-04-06T09:40:28.984Z,23.70
2019-04-06T09:41:28.897Z,23.69
2019-04-06T09:42:28.864Z,23.19
2019-04-06T09:43:28.863Z,23.20
2019-04-06T09:44:28.845Z,23.68
2019-04-06T09:45:28.839Z,24.18
2019-04-06T09:46:28.828Z,24.52
2019-04-06T09:47:28.997Z,25.17
2019-04-06T09:48:28.815Z,25.08
2019-04-06T09:49:29.005Z,25.14
2019-04-06T09:50:28.893Z,25.36
2019-04-06T09:51:28.779Z,25.17
2019-04-06T09:52:29.129Z,25.25
2019-04-06T09:53:28.868Z,25.13
2019-04-06T09:54:29.119Z,25.33
2019-04-06T09:55:28.736Z,25.02
2019-04-06T09:56:28.740Z,24.88
2019-04-06T09:57:28.721Z,24.34
2019-04-06T09:58:28.758Z,24.45
2019-04-06T09:59:35.364Z,24.35
2019-04-06T10:00:29.887Z,24.67
2019-04-06T10:01:38.281Z,24.62
2019-04-06T10:02:29.676Z,24.28
2019-04-06T10:03:28.866Z,23.55
2019-04-06T10:04:28.654Z,23.66
2019-04-06T10:05:28.677Z,24.13
2019-04-06T10:06:28.887Z,24.24
2019-04-06T10:07:28.634Z,24.30
2019-04-06T10:08:28.625Z,24.32
2019-04-06T10:09:28.607Z,24.28
2019-04-06T10:10:28.601Z,24.67
2019-04-06T10:11:28.583Z,24.37
2019-04-06T10:12:28.576Z,23.73
2019-04-06T10:13:28.708Z,23.58
2019-04-06T10:14:28.572Z,23.72
2019-04-06T10:15:28.547Z,23.76
2019-04-06T10:16:28.540Z,23.25
2019-04-06T10:17:28.530Z,23.43
2019-04-06T10:18:28.518Z,23.35
2019-04-06T10:19:28.574Z,23.38
2019-04-06T10:20:28.533Z,23.55
2019-04-06T10:21:28.493Z,23.93
2019-04-06T10:22:28.483Z,24.25
2019-04-06T10:23:28.471Z,24.43
2019-04-06T10:24:28.475Z,24.32
2019-04-06T10:25:28.671Z,24.53
2019-04-06T10:26:28.434Z,24.64
2019-04-06T10:27:28.423Z,24.31
2019-04-06T10:28:28.418Z,24.40
2019-04-06T10:29:28.407Z,24.22
2019-04-06T10:30:28.403Z,24.37
2019-04-06T10:31:28.490Z,24.67
2019-04-06T10:32:28.394Z,25.03
2019-04-06T10:33:28.369Z,25.32
2019-04-06T10:34:28.357Z,25.36
2019-04-06T10:35:28.348Z,25.55
2019-04-06T10:36:31.075Z,25.23
2019-04-06T10:37:28.327Z,25.00
2019-04-06T10:38:28.377Z,24.98
2019-04-06T10:39:28.616Z,24.87
2019-04-06T10:40:28.306Z,24.49
2019-04-06T10:41:28.286Z,24.64
2019-04-06T10:42:29.475Z,24.47
2019-04-06T10:43:28.275Z,24.62
2019-04-06T10:44:28.265Z,25.06
2019-04-06T10:45:28.247Z,25.25
2019-04-06T10:46:28.238Z,25.35
2019-04-06T10:47:28.227Z,25.57
2019-04-06T10:48:28.219Z,25.52
2019-04-06T10:49:28.208Z,25.54
2019-04-06T10:50:28.434Z,25.46
2019-04-06T10:51:28.459Z,25.73
2019-04-06T10:52:28.177Z,25.85
2019-04-06T10:53:28.256Z,25.35
2019-04-06T10:54:28.160Z,25.32
2019-04-06T10:55:28.185Z,25.14
2019-04-06T10:56:28.142Z,25.27
2019-04-06T10:57:28.132Z,25.25
2019-04-06T10:58:28.119Z,24.64
2019-04-06T10:59:28.111Z,24.52
2019-04-06T11:00:28.101Z,24.42
2019-04-06T11:01:28.091Z,24.25
2019-04-06T11:02:28.082Z,24.08
2019-04-06T11:03:28.071Z,24.45
2019-04-06T11:04:28.061Z,24.60
2019-04-06T11:05:28.061Z,24.76
2019-04-06T11:06:28.044Z,24.55
2019-04-06T11:07:28.034Z,24.16
2019-04-06T11:08:28.022Z,24.46
2019-04-06T11:09:28.149Z,24.71
2019-04-06T11:10:28.133Z,24.83
2019-04-06T11:11:28.266Z,24.62
2019-04-06T11:12:27.984Z,24.84
2019-04-06T11:13:27.975Z,25.14
2019-04-06T11:14:27.979Z,25.03
2019-04-06T11:15:28.206Z,24.80
2019-04-06T11:16:27.947Z,24.53
2019-04-06T11:17:27.944Z,24.81
2019-04-06T11:18:28.172Z,24.80
2019-04-06T11:19:28.204Z,24.45
2019-04-06T11:20:27.944Z,24.65
2019-04-06T11:21:27.904Z,25.14
2019-04-06T11:22:27.918Z,24.99
2019-04-06T11:23:27.898Z,25.03
2019-04-06T11:24:27.870Z,24.39
2019-04-06T11:25:27.864Z,24.39
2019-04-06T11:26:27.852Z,24.85
2019-04-06T11:27:27.847Z,25.05
2019-04-06T11:28:27.833Z,24.77
2019-04-06T11:29:27.824Z,24.88
2019-04-06T11:30:27.930Z,24.95
2019-04-06T11:31:27.858Z,25.21
2019-04-06T11:32:27.802Z,25.13
2019-04-06T11:33:27.868Z,25.52
2019-04-06T11:34:27.774Z,25.75
2019-04-06T11:35:27.771Z,25.54
2019-04-06T11:36:27.756Z,25.45
2019-04-06T11:37:27.745Z,25.21
2019-04-06T11:38:27.827Z,25.25
2019-04-06T11:39:27.728Z,25.50
2019-04-06T11:40:27.722Z,25.73
2019-04-06T11:41:27.756Z,26.09
2019-04-06T11:42:27.696Z,25.83
2019-04-06T11:43:27.687Z,25.50
2019-04-06T11:44:27.807Z,25.99
2019-04-06T11:45:27.668Z,25.91
2019-04-06T11:46:27.723Z,26.09
2019-04-06T11:47:27.648Z,25.83
2019-04-06T11:48:27.640Z,25.79
2019-04-06T11:49:27.630Z,25.72
2019-04-06T11:50:27.621Z,25.46
2019-04-06T11:51:27.616Z,25.60
2019-04-06T11:52:27.599Z,25.60
2019-04-06T11:53:27.590Z,25.64
2019-04-06T11:54:27.586Z,26.28
2019-04-06T11:55:27.602Z,26.40
2019-04-06T11:56:27.574Z,26.63
2019-04-06T11:57:27.554Z,26.77
2019-04-06T11:58:27.868Z,26.60
2019-04-06T11:59:27.540Z,26.55
2019-04-06T12:00:28.160Z,26.94
2019-04-06T12:01:27.606Z,26.94
2019-04-06T12:02:27.507Z,26.63
2019-04-06T12:03:27.495Z,26.20
2019-04-06T12:04:27.487Z,25.91
2019-04-06T12:05:27.476Z,25.87
2019-04-06T12:06:27.486Z,25.76
2019-04-06T12:07:27.466Z,25.45
2019-04-06T12:08:27.472Z,25.40
2019-04-06T12:09:27.439Z,25.27
2019-04-06T12:10:27.484Z,25.14
2019-04-06T12:11:27.415Z,25.30
2019-04-06T12:12:27.406Z,25.67
2019-04-06T12:13:27.397Z,25.51
2019-04-06T12:14:27.390Z,25.65
2019-04-06T12:15:27.380Z,25.57
2019-04-06T12:16:27.366Z,25.42
2019-04-06T12:17:27.539Z,25.10
2019-04-06T12:18:27.350Z,25.77
2019-04-06T12:19:27.414Z,25.85
2019-04-06T12:20:27.330Z,25.90
2019-04-06T12:21:27.557Z,25.52
2019-04-06T12:22:27.309Z,25.39
2019-04-06T12:23:27.399Z,25.83
2019-04-06T12:24:27.288Z,25.82
2019-04-06T12:25:27.279Z,26.13
2019-04-06T12:26:27.276Z,25.45
2019-04-06T12:27:27.523Z,25.05
2019-04-06T12:28:27.250Z,25.13
2019-04-06T12:29:27.240Z,25.57
2019-04-06T12:30:36.590Z,25.76
2019-04-06T12:31:28.218Z,25.69
2019-04-06T12:32:27.215Z,25.61
2019-04-06T12:33:27.484Z,25.67
2019-04-06T12:34:27.191Z,25.28
2019-04-06T12:35:27.180Z,25.17
2019-04-06T12:36:27.464Z,25.40
2019-04-06T12:37:27.179Z,25.90
2019-04-06T12:38:27.146Z,25.73
2019-04-06T12:39:27.177Z,25.82
2019-04-06T12:40:27.132Z,26.30
2019-04-06T12:41:27.117Z,26.09
2019-04-06T12:42:27.119Z,25.55
2019-04-06T12:43:27.097Z,25.27
2019-04-06T12:44:27.094Z,25.25
2019-04-06T12:45:27.176Z,24.98
2019-04-06T12:46:27.069Z,25.10
2019-04-06T12:47:27.357Z,25.14
2019-04-06T12:48:27.065Z,24.61
2019-04-06T12:49:27.036Z,24.28
2019-04-06T12:50:27.280Z,24.34
2019-04-06T12:51:27.046Z,24.50
2019-04-06T12:52:27.006Z,25.17
2019-04-06T12:53:27.189Z,25.06
2019-04-06T12:54:26.993Z,25.21
2019-04-06T12:55:26.977Z,25.42
2019-04-06T12:56:26.968Z,25.35
2019-04-06T12:57:27.045Z,25.08
2019-04-06T12:58:26.960Z,25.39
2019-04-06T12:59:26.936Z,25.55
2019-04-06T13:00:27.102Z,25.55
2019-04-06T13:01:27.142Z,25.02
2019-04-06T13:02:26.945Z,25.17